Time;durP1;ratioP1;P1;durP2;ratioP2;P2;SDS_P1;SDS_P2;PMS_P1;PMS_P2;Temp;Humidity;BMP_temperature;BMP_pressure;BME280_temperature;BME280_humidity;BME280_pressure;Samples;Min_cycle;Max_cycle;Signal;HPM_P1;HPM_P2
2021/03/06 00:54:48;;;;;;;;;;;;;;;;;;;;;
2021/03/06 01:56:38;;;;;;;6.45;3.38;;;0.70;84.40;;;;;;4877852;29;20065;-91
2021/03/06 02:00:05;;;;;;;7.30;3.50;;;0.60;84.50;;;;;;4877078;29;20045;-91
2021/03/06 02:03:21;;;;;;;5.82;3.53;;;0.60;84.60;;;;;;4942291;28;20285;-91
2021/03/06 02:06:06;;;;;;;5.78;4.13;;;0.60;84.90;;;;;;4921620;28;20074;-91
2021/03/06 02:08:54;;;;;;;4.80;3.83;;;0.60;85.00;;;;;;4970563;28;20066;-90
2021/03/06 02:12:03;;;;;;;6.43;4.00;;;0.60;84.90;;;;;;5013467;28;20046;-91
2021/03/06 02:21:46;;;;;;;5.97;3.63;;;0.50;85.30;;;;;;4965147;28;20085;-91
2021/03/06 02:24:36;;;;;;;;;;;0.50;85.40;;;;;;4988368;28;20057;-90
2021/03/06 02:27:46;;;;;;;4.05;2.80;;;0.50;85.60;;;;;;5055631;28;19911;-90
2021/03/06 02:30:42;;;;;;;4.40;3.40;;;0.40;85.60;;;;;;5058048;28;20054;-91
2021/03/06 02:33:20;;;;;;;5.38;3.25;;;0.40;86.20;;;;;;4943120;28;20389;-91
2021/03/06 02:36:13;;;;;;;5.78;3.38;;;0.40;86.50;;;;;;4958093;28;20050;-90
2021/03/06 02:38:41;;;;;;;7.70;3.53;;;0.40;86.60;;;;;;4968955;28;20042;-92
2021/03/06 02:41:16;;;;;;;5.68;3.30;;;0.40;86.60;;;;;;4978287;28;20109;-90
2021/03/06 02:44:03;;;;;;;4.80;3.15;;;0.40;86.50;;;;;;4973129;28;20042;-90
2021/03/06 02:46:50;;;;;;;3.90;3.03;;;0.40;86.50;;;;;;4962146;28;20043;-90
2021/03/06 02:49:21;;;;;;;4.10;3.03;;;0.50;86.20;;;;;;4967915;28;20125;-90
2021/03/06 02:51:51;;;;;;;3.88;3.15;;;0.50;85.70;;;;;;4976798;28;20369;-90
2021/03/06 02:54:17;;;;;;;12.38;4.15;;;0.50;85.60;;;;;;4983868;28;20039;-90
2021/03/06 02:56:46;;;;;;;5.43;3.30;;;0.50;85.40;;;;;;4961012;28;20038;-90
2021/03/06 02:59:55;;;;;;;4.50;2.70;;;0.50;85.30;;;;;;4961145;28;20043;-90
2021/03/06 03:02:57;;;;;;;4.80;3.55;;;0.60;85.50;;;;;;4997673;28;20034;-91
2021/03/06 03:05:46;;;;;;;6.30;3.17;;;0.60;85.40;;;;;;4960217;28;20034;-90
2021/03/06 03:08:36;;;;;;;7.13;3.55;;;0.50;85.40;;;;;;5042571;28;20035;-89
2021/03/06 03:11:09;;;;;;;9.02;3.83;;;0.50;85.70;;;;;;4982992;28;20416;-90
2021/03/06 03:17:20;;;;;;;5.55;3.80;;;0.50;86.20;;;;;;4995156;28;20042;-90
2021/03/06 03:20:02;;;;;;;;;;;0.40;86.20;;;;;;4969953;28;20042;-90
2021/03/06 03:22:33;;;;;;;8.27;3.63;;;0.40;86.10;;;;;;4962507;28;19917;-91
2021/03/06 03:25:05;;;;;;;9.05;4.25;;;0.30;86.60;;;;;;4973971;28;20038;-90
2021/03/06 03:27:34;;;;;;;5.63;3.30;;;0.30;87.10;;;;;;4963859;28;20050;-91
2021/03/06 03:30:04;;;;;;;6.70;3.80;;;0.30;87.10;;;;;;4968564;28;20070;-90
2021/03/06 03:32:30;;;;;;;7.63;3.70;;;0.30;86.80;;;;;;4999030;28;20035;-91
2021/03/06 03:35:03;;;;;;;6.13;3.90;;;0.40;86.50;;;;;;4978174;28;20108;-90
2021/03/06 03:37:32;;;;;;;4.63;4.10;;;0.40;86.20;;;;;;4974147;28;20137;-90
2021/03/06 03:40:03;;;;;;;10.07;4.63;;;0.40;86.50;;;;;;4979759;28;20038;-90
2021/03/06 03:42:29;;;;;;;6.13;3.47;;;0.40;86.30;;;;;;4979582;28;20107;-90
2021/03/06 03:44:55;;;;;;;6.35;3.90;;;0.30;86.60;;;;;;4977096;28;20380;-90
2021/03/06 03:47:21;;;;;;;4.25;3.58;;;0.40;86.70;;;;;;4976347;28;20045;-89
2021/03/06 03:49:47;;;;;;;5.93;4.00;;;0.40;86.30;;;;;;4965154;28;20077;-89
2021/03/06 03:52:13;;;;;;;5.75;3.63;;;0.50;86.10;;;;;;4961947;28;20070;-89
2021/03/06 03:54:40;;;;;;;7.22;4.15;;;0.50;85.90;;;;;;4977012;28;20326;-90
2021/03/06 03:57:08;;;;;;;4.80;3.20;;;0.50;85.80;;;;;;4978480;28;20446;-89
2021/03/06 03:59:34;;;;;;;7.50;3.95;;;0.50;85.70;;;;;;4970138;28;20077;-90
2021/03/06 04:02:00;;;;;;;9.95;4.53;;;0.60;85.70;;;;;;4969646;28;20038;-89
2021/03/06 04:04:25;;;;;;;5.50;3.88;;;0.60;85.60;;;;;;4974044;28;20125;-90
2021/03/06 04:06:54;;;;;;;5.78;3.70;;;0.50;85.20;;;;;;4965104;28;20053;-90
2021/03/06 04:09:20;;;;;;;11.25;3.42;;;0.60;85.30;;;;;;4979350;28;20053;-90
2021/03/06 04:11:46;;;;;;;9.00;3.90;;;0.50;85.20;;;;;;4978826;28;20034;-90
2021/03/06 04:14:11;;;;;;;5.80;4.72;;;0.50;85.70;;;;;;4975612;28;20038;-89
2021/03/06 04:16:37;;;;;;;6.57;3.97;;;0.50;85.70;;;;;;4974606;28;20281;-90
2021/03/06 04:19:03;;;;;;;5.85;3.28;;;0.50;85.50;;;;;;4975296;28;20038;-90
2021/03/06 04:21:29;;;;;;;6.15;3.85;;;0.50;85.50;;;;;;4962983;28;20520;-89
2021/03/06 04:23:55;;;;;;;6.07;3.78;;;0.40;85.50;;;;;;4966714;28;20121;-89
2021/03/06 04:26:20;;;;;;;7.78;4.90;;;0.40;85.70;;;;;;4982612;28;20034;-89
2021/03/06 04:28:46;;;;;;;5.35;3.83;;;0.40;85.70;;;;;;5002581;28;20043;-89
2021/03/06 04:31:12;;;;;;;6.63;4.03;;;0.40;86.00;;;;;;5054326;28;20039;-89
2021/03/06 04:33:40;;;;;;;9.65;4.97;;;0.40;86.00;;;;;;4996966;28;20070;-90
2021/03/06 04:36:06;;;;;;;6.50;3.90;;;0.40;86.00;;;;;;4969263;28;20039;-89
2021/03/06 04:38:32;;;;;;;6.65;4.32;;;0.40;86.10;;;;;;4963686;28;20099;-87
2021/03/06 04:41:02;;;;;;;7.13;4.15;;;0.40;85.80;;;;;;4972410;28;20050;-90
2021/03/06 04:43:28;;;;;;;5.75;4.07;;;0.40;85.70;;;;;;4982538;28;20049;-89
2021/03/06 04:45:56;;;;;;;5.80;3.75;;;0.40;85.80;;;;;;4974913;28;20397;-90
2021/03/06 04:48:22;;;;;;;5.40;4.07;;;0.40;85.60;;;;;;4962955;28;20126;-89
2021/03/06 04:50:47;;;;;;;9.23;4.35;;;0.40;85.90;;;;;;4973635;28;20176;-90
2021/03/06 04:53:13;;;;;;;5.20;4.30;;;0.30;86.10;;;;;;4981728;28;20039;-90
2021/03/06 04:55:39;;;;;;;5.60;3.78;;;0.40;86.20;;;;;;4981836;28;20412;-90
2021/03/06 04:58:08;;;;;;;7.93;3.75;;;0.30;85.90;;;;;;4977915;28;20042;-89
2021/03/06 05:00:33;;;;;;;10.30;4.00;;;0.30;85.90;;;;;;4975889;28;20196;-90
2021/03/06 05:02:59;;;;;;;7.88;4.13;;;0.30;85.90;;;;;;4973863;28;20517;-89
2021/03/06 05:05:25;;;;;;;11.32;4.28;;;0.30;85.90;;;;;;5010471;28;20046;-91
2021/03/06 05:07:50;;;;;;;5.07;3.72;;;0.30;85.90;;;;;;5026146;28;20042;-90
2021/03/06 05:10:16;;;;;;;6.30;4.63;;;0.30;85.80;;;;;;4993041;28;20125;-91
2021/03/06 05:12:42;;;;;;;6.28;4.13;;;0.30;86.10;;;;;;4966701;28;20113;-91
2021/03/06 05:15:08;;;;;;;7.80;4.55;;;0.30;86.10;;;;;;4971623;28;20050;-90
2021/03/06 05:17:34;;;;;;;7.18;4.82;;;0.30;85.90;;;;;;4970752;28;20108;-90
2021/03/06 05:20:00;;;;;;;5.40;4.10;;;0.30;86.00;;;;;;4970415;28;20065;-90
2021/03/06 05:22:26;;;;;;;6.35;4.95;;;0.30;86.20;;;;;;4978093;28;20096;-90
2021/03/06 05:24:52;;;;;;;15.50;6.38;;;0.30;86.30;;;;;;4973126;28;20046;-89
2021/03/06 05:27:21;;;;;;;6.63;4.32;;;0.30;86.10;;;;;;4980045;28;20045;-90
2021/03/06 05:29:48;;;;;;;5.32;4.43;;;0.30;85.90;;;;;;5012094;28;20035;-87
2021/03/06 05:32:14;;;;;;;5.57;4.30;;;0.30;85.90;;;;;;4961934;28;20101;-88
2021/03/06 05:34:39;;;;;;;6.22;4.60;;;0.30;86.00;;;;;;4971307;28;20038;-88
2021/03/06 05:37:09;;;;;;;10.90;4.18;;;0.30;85.90;;;;;;4981705;28;20034;-89
2021/03/06 05:39:37;;;;;;;8.15;4.18;;;0.30;85.90;;;;;;4981293;28;20049;-89
2021/03/06 05:42:04;;;;;;;9.77;5.35;;;0.30;85.70;;;;;;5057476;28;20047;-89
2021/03/06 05:44:36;;;;;;;9.23;4.38;;;0.30;85.50;;;;;;4965810;28;20038;-90
2021/03/06 05:47:03;;;;;;;5.97;4.38;;;0.30;85.40;;;;;;4962866;28;20096;-91
2021/03/06 05:49:28;;;;;;;7.57;4.88;;;0.30;85.50;;;;;;4975602;28;20031;-90
2021/03/06 05:51:55;;;;;;;7.85;4.75;;;0.30;85.90;;;;;;4981084;28;20036;-90
2021/03/06 05:54:26;;;;;;;6.82;4.72;;;0.30;85.80;;;;;;4980749;28;20077;-89
2021/03/06 05:56:54;;;;;;;7.27;4.93;;;0.30;85.90;;;;;;5063766;28;20059;-89
2021/03/06 05:59:22;;;;;;;10.13;5.20;;;0.30;85.90;;;;;;5063840;28;20039;-90
2021/03/06 06:01:48;;;;;;;7.63;4.80;;;0.30;85.60;;;;;;4963461;28;20047;-90
2021/03/06 06:04:19;;;;;;;10.30;4.68;;;0.30;85.50;;;;;;4961706;28;20049;-90
2021/03/06 06:06:45;;;;;;;7.88;5.72;;;0.30;85.60;;;;;;4962371;28;20058;-91
2021/03/06 06:09:14;;;;;;;7.68;4.93;;;0.30;85.80;;;;;;4971574;28;20392;-91
2021/03/06 06:11:39;;;;;;;7.20;4.47;;;0.30;85.70;;;;;;5019521;28;20066;-88
2021/03/06 06:14:08;;;;;;;8.63;4.32;;;0.30;85.70;;;;;;4965822;28;20077;-88
2021/03/06 06:16:34;;;;;;;7.95;5.28;;;0.30;85.70;;;;;;4979876;28;20077;-88
2021/03/06 06:19:02;;;;;;;9.00;5.90;;;0.30;85.90;;;;;;5004588;28;20107;-89
2021/03/06 06:21:35;;;;;;;9.32;4.43;;;0.40;85.70;;;;;;5077357;28;20050;-89
2021/03/06 06:24:08;;;;;;;7.90;5.03;;;0.40;85.40;;;;;;5061160;28;20070;-90
2021/03/06 06:26:34;;;;;;;9.40;4.65;;;0.40;85.30;;;;;;4977658;28;20039;-89
2021/03/06 06:29:00;;;;;;;9.40;5.28;;;0.40;85.30;;;;;;4976964;28;20034;-89
2021/03/06 06:31:27;;;;;;;9.80;6.40;;;0.40;85.30;;;;;;5025054;28;20320;-89
2021/03/06 06:33:55;;;;;;;7.72;5.00;;;0.40;85.30;;;;;;4977379;28;20171;-88
2021/03/06 06:36:38;;;;;;;9.18;5.80;;;0.40;85.10;;;;;;4955531;28;20046;-88
2021/03/06 06:39:06;;;;;;;7.97;5.40;;;0.40;85.30;;;;;;4960188;28;20399;-88
2021/03/06 06:41:55;;;;;;;10.43;7.03;;;0.40;85.30;;;;;;4978272;28;20565;-87
2021/03/06 06:44:21;;;;;;;6.95;5.90;;;0.50;85.10;;;;;;5057161;28;20070;-89
2021/03/06 06:46:49;;;;;;;8.48;5.95;;;0.50;85.30;;;;;;4980897;28;20062;-90
2021/03/06 06:49:16;;;;;;;8.52;5.25;;;0.50;85.70;;;;;;4985500;28;20072;-90
2021/03/06 06:52:03;;;;;;;9.30;5.95;;;0.50;85.50;;;;;;4984605;28;20041;-90
2021/03/06 06:54:30;;;;;;;10.73;6.25;;;0.50;85.40;;;;;;4968100;28;20356;-90
2021/03/06 06:57:13;;;;;;;8.30;6.07;;;0.50;85.30;;;;;;4969181;28;20038;-91
2021/03/06 06:59:50;;;;;;;7.05;5.55;;;0.60;85.20;;;;;;4979151;28;20065;-88
2021/03/06 07:02:15;;;;;;;10.27;5.43;;;0.60;85.10;;;;;;4978680;28;20042;-87
2021/03/06 07:04:50;;;;;;;9.70;5.97;;;0.60;85.00;;;;;;4985917;28;20061;-88
2021/03/06 07:07:17;;;;;;;9.10;6.10;;;0.60;85.50;;;;;;4969228;28;20034;-90
2021/03/06 07:10:03;;;;;;;8.55;5.63;;;0.60;85.40;;;;;;5021275;28;20028;-89
2021/03/06 07:12:37;;;;;;;9.15;6.13;;;0.70;85.20;;;;;;4975130;28;20031;-89
2021/03/06 07:15:14;;;;;;;10.50;6.18;;;0.70;85.20;;;;;;4961848;28;20031;-88
2021/03/06 07:17:42;;;;;;;10.82;5.85;;;0.70;85.30;;;;;;4954550;28;20045;-88
2021/03/06 07:20:13;;;;;;;12.00;5.80;;;0.80;85.00;;;;;;4971346;28;20047;-89
2021/03/06 07:22:39;;;;;;;10.88;5.55;;;0.80;84.60;;;;;;4976129;28;20043;-90
2021/03/06 07:25:05;;;;;;;9.57;6.03;;;0.90;84.40;;;;;;4960602;28;20038;-90
2021/03/06 07:27:31;;;;;;;12.13;5.85;;;1.00;83.80;;;;;;4962851;28;20038;-90
2021/03/06 07:29:56;;;;;;;7.65;5.40;;;1.00;83.10;;;;;;5018871;28;20300;-90
2021/03/06 07:32:28;;;;;;;9.65;5.55;;;1.10;83.20;;;;;;4970648;28;20042;-88
2021/03/06 07:35:01;;;;;;;9.00;5.75;;;1.10;83.40;;;;;;4994041;28;20407;-90
2021/03/06 07:37:28;;;;;;;9.68;5.22;;;1.20;83.00;;;;;;4975310;28;20367;-89
2021/03/06 07:39:57;;;;;;;8.45;5.28;;;1.30;82.60;;;;;;4970865;28;20180;-90
2021/03/06 07:42:29;;;;;;;11.05;4.95;;;1.40;82.30;;;;;;4984021;28;20038;-89
2021/03/06 07:44:56;;;;;;;6.38;4.20;;;1.40;82.20;;;;;;4970726;28;20396;-91
2021/03/06 07:47:33;;;;;;;8.60;4.68;;;1.50;82.10;;;;;;4983499;28;20046;-88
2021/03/06 07:50:02;;;;;;;7.97;5.20;;;1.50;81.80;;;;;;4961793;28;20058;-90
2021/03/06 07:52:31;;;;;;;6.68;4.55;;;1.60;81.60;;;;;;4959759;28;20277;-89
2021/03/06 07:54:59;;;;;;;8.32;4.90;;;1.70;80.50;;;;;;4963425;28;20046;-90
2021/03/06 07:57:25;;;;;;;8.65;5.03;;;1.80;80.30;;;;;;4970883;28;20042;-89
2021/03/06 07:59:53;;;;;;;7.93;4.55;;;1.80;80.00;;;;;;4965455;28;20717;-90
2021/03/06 08:02:33;;;;;;;4.97;3.88;;;1.90;80.10;;;;;;4963429;28;20352;-89
2021/03/06 08:04:59;;;;;;;8.50;3.88;;;2.00;79.20;;;;;;4969635;28;20498;-90
2021/03/06 08:07:44;;;;;;;7.45;4.38;;;2.00;77.80;;;;;;4989373;28;20099;-90
2021/03/06 08:10:11;;;;;;;6.28;4.13;;;2.10;77.60;;;;;;4986659;28;20129;-90
2021/03/06 08:12:38;;;;;;;5.97;4.18;;;2.10;77.30;;;;;;4977691;28;20045;-90
2021/03/06 08:15:27;;;;;;;6.47;3.47;;;2.10;78.30;;;;;;4969617;28;20034;-90
2021/03/06 08:17:53;;;;;;;6.95;4.18;;;2.30;78.40;;;;;;5000368;28;20138;-89
2021/03/06 08:20:32;;;;;;;7.95;4.65;;;2.30;77.00;;;;;;4952562;28;20122;-90
2021/03/06 08:23:16;;;;;;;9.30;4.40;;;2.40;77.00;;;;;;4948114;28;20143;-88
2021/03/06 08:25:41;;;;;;;7.03;4.15;;;2.40;76.30;;;;;;5051661;28;20046;-89
2021/03/06 08:28:22;;;;;;;6.20;4.32;;;2.50;76.10;;;;;;5006559;28;20117;-89
2021/03/06 08:30:47;;;;;;;7.25;4.22;;;2.50;75.90;;;;;;4967557;28;20050;-89
2021/03/06 08:33:15;;;;;;;7.57;4.20;;;2.60;76.80;;;;;;4976497;28;20038;-89
2021/03/06 08:35:41;;;;;;;8.07;3.80;;;2.70;76.40;;;;;;4943099;28;20177;-91
2021/03/06 08:38:28;;;;;;;8.88;4.70;;;2.70;75.90;;;;;;4958980;28;20432;-91
2021/03/06 08:40:54;;;;;;;4.90;3.72;;;2.80;75.80;;;;;;4960062;28;20072;-90
2021/03/06 08:43:20;;;;;;;10.98;3.97;;;2.80;75.90;;;;;;4974101;28;20424;-91
2021/03/06 08:45:51;;;;;;;5.25;4.20;;;2.90;75.30;;;;;;4969214;28;20031;-91
2021/03/06 08:48:22;;;;;;;9.77;4.28;;;2.90;76.20;;;;;;4940058;29;20381;-89
2021/03/06 08:50:47;;;;;;;6.32;4.05;;;2.90;75.40;;;;;;4972909;28;20432;-89
2021/03/06 08:53:14;;;;;;;7.07;4.18;;;3.00;75.80;;;;;;4966583;28;20043;-90
2021/03/06 08:55:43;;;;;;;6.40;4.85;;;3.20;75.70;;;;;;4973963;28;20049;-90
2021/03/06 08:58:11;;;;;;;5.68;4.28;;;3.30;75.00;;;;;;4970459;28;20046;-90
2021/03/06 09:00:47;;;;;;;7.55;3.92;;;3.30;75.10;;;;;;4966897;28;20038;-90
2021/03/06 09:03:17;;;;;;;9.05;4.40;;;3.40;74.80;;;;;;4980234;28;20137;-91
2021/03/06 09:05:44;;;;;;;9.02;5.07;;;3.40;75.80;;;;;;4981757;28;20030;-91
2021/03/06 09:08:10;;;;;;;7.20;4.68;;;3.50;75.60;;;;;;4977448;28;20045;-90
2021/03/06 09:10:40;;;;;;;6.38;4.72;;;3.60;75.20;;;;;;4982089;28;20030;-89
2021/03/06 09:13:21;;;;;;;7.05;4.63;;;3.70;74.80;;;;;;4966720;28;20043;-91
2021/03/06 09:16:00;;;;;;;17.85;5.30;;;3.80;74.50;;;;;;4973267;28;20042;-90
2021/03/06 09:18:31;;;;;;;7.30;4.13;;;3.80;74.80;;;;;;4973891;28;20038;-89
2021/03/06 09:21:03;;;;;;;5.63;3.60;;;4.00;73.90;;;;;;4963051;28;20129;-92
2021/03/06 09:23:35;;;;;;;7.05;3.88;;;4.10;74.30;;;;;;4966009;28;20050;-88
2021/03/06 09:26:05;;;;;;;6.65;3.47;;;4.30;74.60;;;;;;4962313;28;20070;-90
2021/03/06 09:28:32;;;;;;;4.55;3.25;;;4.30;74.50;;;;;;4962142;28;20343;-89
2021/03/06 09:31:00;;;;;;;4.78;3.05;;;4.30;74.60;;;;;;4962498;28;20039;-90
2021/03/06 09:33:34;;;;;;;4.35;2.45;;;4.50;73.70;;;;;;4962369;28;20046;-90
2021/03/06 09:36:04;;;;;;;5.97;2.97;;;4.50;73.20;;;;;;4962479;28;20550;-90
2021/03/06 09:38:30;;;;;;;6.82;2.95;;;4.70;74.00;;;;;;4962211;28;20535;-90
2021/03/06 09:40:56;;;;;;;7.13;2.72;;;4.80;72.30;;;;;;4962512;28;20042;-89
2021/03/06 09:43:28;;;;;;;6.57;2.63;;;4.80;72.30;;;;;;4962336;28;20081;-90
2021/03/06 09:45:55;;;;;;;3.17;2.67;;;4.90;72.50;;;;;;4962193;28;20081;-91
2021/03/06 09:48:21;;;;;;;3.55;2.58;;;5.00;72.20;;;;;;4962238;28;20030;-92
2021/03/06 09:50:47;;;;;;;5.97;2.42;;;5.00;71.10;;;;;;4962133;28;20042;-91
2021/03/06 09:53:15;;;;;;;4.38;2.60;;;5.10;71.90;;;;;;4962371;28;20038;-91
2021/03/06 09:55:41;;;;;;;3.15;2.22;;;5.20;71.10;;;;;;4995508;28;20042;-90
2021/03/06 09:58:21;;;;;;;4.18;2.15;;;5.30;71.40;;;;;;4961920;28;20360;-91
2021/03/06 10:00:47;;;;;;;3.28;2.03;;;5.40;71.60;;;;;;5043212;28;20066;-88
2021/03/06 10:03:34;;;;;;;4.10;2.22;;;5.50;70.50;;;;;;4942968;29;20133;-90
2021/03/06 10:06:02;;;;;;;4.28;1.77;;;5.70;70.00;;;;;;5043035;28;20043;-90
2021/03/06 10:08:32;;;;;;;3.45;2.00;;;5.70;69.60;;;;;;5042943;28;20131;-91
2021/03/06 10:10:59;;;;;;;3.63;1.90;;;5.90;69.70;;;;;;5046878;28;20039;-89
2021/03/06 10:13:25;;;;;;;3.58;1.80;;;6.00;69.40;;;;;;5082983;28;20038;-89
2021/03/06 10:15:53;;;;;;;2.90;2.60;;;6.10;67.20;;;;;;4982125;28;20046;-90
2021/03/06 10:18:19;;;;;;;4.78;1.70;;;6.20;66.80;;;;;;5063299;28;20040;-91
2021/03/06 10:20:47;;;;;;;3.08;1.98;;;6.30;67.60;;;;;;4971015;28;20082;-91
2021/03/06 10:23:12;;;;;;;2.67;2.00;;;6.50;67.10;;;;;;4961626;28;20059;-91
2021/03/06 10:25:41;;;;;;;13.25;2.13;;;6.60;66.80;;;;;;4962701;28;20111;-89
2021/03/06 10:28:11;;;;;;;2.75;1.52;;;6.70;65.60;;;;;;4961422;28;20039;-91
2021/03/06 10:30:39;;;;;;;3.35;1.90;;;6.80;65.40;;;;;;4961764;28;20424;-91
2021/03/06 10:33:17;;;;;;;5.43;1.90;;;6.80;64.90;;;;;;4961634;28;20077;-92
2021/03/06 10:35:46;;;;;;;2.65;1.98;;;6.90;63.20;;;;;;4962653;28;20043;-91
2021/03/06 10:38:35;;;;;;;2.20;1.63;;;7.00;64.00;;;;;;4942164;28;20035;-90
2021/03/06 10:41:21;;;;;;;1.98;1.27;;;7.00;62.90;;;;;;5019134;28;20049;-91
2021/03/06 10:43:54;;;;;;;3.15;1.98;;;6.90;63.30;;;;;;4961524;28;20320;-91
2021/03/06 10:46:24;;;;;;;1.70;1.60;;;6.90;62.50;;;;;;4961244;28;20038;-91
2021/03/06 10:48:54;;;;;;;2.63;1.85;;;6.90;61.90;;;;;;4967866;28;20046;-91
2021/03/06 10:51:21;;;;;;;2.17;1.58;;;6.90;61.80;;;;;;4972028;28;20034;-91
2021/03/06 10:54:04;;;;;;;1.67;1.48;;;6.80;61.50;;;;;;4962262;28;20080;-92
2021/03/06 10:56:34;;;;;;;1.85;1.70;;;6.90;62.20;;;;;;4983446;28;20114;-93
2021/03/06 12:40:41;;;;;;;2.40;0.80;;;8.30;56.20;;;;;;4961514;28;20403;-93
2021/03/06 12:43:10;;;;;;;4.82;0.95;;;8.30;57.20;;;;;;4960280;28;20043;-90
2021/03/06 12:45:35;;;;;;;2.38;1.25;;;8.40;56.70;;;;;;4978930;28;20038;-86
2021/03/06 12:48:01;;;;;;;2.53;0.90;;;8.60;56.80;;;;;;4967119;28;20100;-89
2021/03/06 12:50:27;;;;;;;3.42;0.88;;;8.60;58.40;;;;;;4981983;28;20035;-91
2021/03/06 12:52:52;;;;;;;1.25;0.88;;;8.60;56.70;;;;;;4974196;28;20039;-88
2021/03/06 12:55:18;;;;;;;3.42;1.30;;;8.50;59.20;;;;;;4963720;28;20313;-90
2021/03/06 12:57:43;;;;;;;2.45;1.00;;;8.50;58.40;;;;;;4980793;28;20122;-89
2021/03/06 13:00:10;;;;;;;0.70;0.70;;;8.50;57.40;;;;;;4962283;28;20043;-92
2021/03/06 13:02:35;;;;;;;1.15;0.70;;;8.40;56.30;;;;;;4964954;28;20053;-91
2021/03/06 13:05:01;;;;;;;1.30;0.63;;;8.40;56.00;;;;;;5055222;28;20047;-91
2021/03/06 13:07:27;;;;;;;1.27;0.70;;;8.30;56.90;;;;;;4982957;28;20030;-92
2021/03/06 13:09:53;;;;;;;0.60;0.60;;;8.20;58.30;;;;;;4975228;28;20364;-91
2021/03/06 13:12:18;;;;;;;0.80;0.80;;;8.20;58.60;;;;;;4963173;28;20121;-90
2021/03/06 13:14:44;;;;;;;0.90;0.80;;;8.10;57.90;;;;;;4971666;28;20134;-91
2021/03/06 13:17:09;;;;;;;4.72;1.00;;;8.00;58.20;;;;;;4980211;28;20050;-92
2021/03/06 13:19:35;;;;;;;1.88;1.38;;;7.90;58.50;;;;;;4975909;28;20300;-89
2021/03/06 13:22:00;;;;;;;2.40;1.20;;;7.90;59.70;;;;;;4980296;28;20051;-91
2021/03/06 13:24:26;;;;;;;4.57;1.33;;;7.80;59.30;;;;;;4961849;28;20046;-91
2021/03/06 13:26:52;;;;;;;1.05;0.95;;;7.80;59.70;;;;;;4962438;28;20038;-91
2021/03/06 13:29:18;;;;;;;1.48;1.20;;;7.80;60.20;;;;;;4963156;28;20053;-90
2021/03/06 13:31:43;;;;;;;1.63;1.10;;;7.80;59.90;;;;;;4992944;28;20038;-91
2021/03/06 13:34:09;;;;;;;2.70;0.90;;;7.80;59.60;;;;;;4973129;28;20076;-91
2021/03/06 13:36:35;;;;;;;1.33;0.90;;;7.80;59.60;;;;;;4982089;28;20686;-90
2021/03/06 13:39:02;;;;;;;1.15;0.95;;;7.80;59.00;;;;;;4981379;28;20071;-92
2021/03/06 13:41:27;;;;;;;1.55;1.08;;;7.80;60.50;;;;;;4971036;28;20104;-91
2021/03/06 13:43:53;;;;;;;1.10;0.75;;;7.80;59.90;;;;;;4978705;28;20343;-91
2021/03/06 13:46:18;;;;;;;0.80;0.80;;;7.70;60.10;;;;;;4962379;28;20035;-91
2021/03/06 13:48:44;;;;;;;1.67;1.00;;;7.60;61.10;;;;;;4975652;28;20113;-91
2021/03/06 13:51:09;;;;;;;0.85;0.65;;;7.50;62.10;;;;;;4965522;28;20043;-90
2021/03/06 13:53:35;;;;;;;0.80;0.80;;;7.60;60.60;;;;;;4975176;28;20047;-91
2021/03/06 13:56:01;;;;;;;1.20;1.02;;;7.60;61.80;;;;;;4961180;28;20034;-90
2021/03/06 13:58:27;;;;;;;6.05;1.35;;;7.50;61.70;;;;;;4972978;28;20057;-90
2021/03/06 14:00:52;;;;;;;1.08;0.98;;;7.50;61.70;;;;;;4965620;28;20043;-89
2021/03/06 14:03:18;;;;;;;1.27;1.17;;;7.40;61.40;;;;;;4995921;28;20084;-88
2021/03/06 14:05:44;;;;;;;1.88;1.33;;;7.30;61.90;;;;;;4975958;28;20114;-92
2021/03/06 14:08:09;;;;;;;1.55;0.90;;;7.40;62.40;;;;;;4962956;28;20035;-91
2021/03/06 14:10:34;;;;;;;1.27;1.17;;;7.30;62.60;;;;;;4962426;28;20054;-90
2021/03/06 14:13:00;;;;;;;4.65;0.98;;;7.30;62.20;;;;;;4992309;28;20060;-91
2021/03/06 14:15:26;;;;;;;1.10;0.85;;;7.40;62.80;;;;;;4981696;28;20046;-92
2021/03/06 14:17:52;;;;;;;3.65;1.20;;;7.30;63.70;;;;;;4962064;28;20080;-92
2021/03/06 14:20:18;;;;;;;1.10;0.98;;;7.40;63.50;;;;;;4972315;28;20073;-91
2021/03/06 14:22:43;;;;;;;2.72;1.50;;;7.50;62.30;;;;;;4961068;28;20039;-90
2021/03/06 14:25:09;;;;;;;3.58;2.20;;;7.60;61.80;;;;;;4976894;28;20039;-90
2021/03/06 14:27:35;;;;;;;3.30;1.02;;;7.80;62.30;;;;;;4996421;28;20121;-88
2021/03/06 14:30:01;;;;;;;1.40;1.23;;;7.80;61.30;;;;;;4994831;28;20105;-90
2021/03/06 14:32:26;;;;;;;1.77;1.10;;;7.80;61.40;;;;;;4964708;28;20152;-89
2021/03/06 14:34:52;;;;;;;2.65;1.23;;;7.90;62.20;;;;;;4965249;28;20045;-89
2021/03/06 14:37:19;;;;;;;3.17;1.42;;;7.90;62.50;;;;;;4979261;28;20121;-90
2021/03/06 14:39:45;;;;;;;1.85;1.25;;;8.00;61.70;;;;;;4978237;28;20049;-91
2021/03/06 14:42:15;;;;;;;1.17;0.95;;;8.00;61.70;;;;;;4978216;28;20039;-92
2021/03/06 14:44:41;;;;;;;1.27;0.95;;;7.90;61.60;;;;;;4995297;28;20046;-89
2021/03/06 14:47:16;;;;;;;1.35;0.90;;;7.90;62.10;;;;;;4980583;28;20038;-92
2021/03/06 14:49:42;;;;;;;1.13;0.85;;;7.90;62.70;;;;;;4981762;28;20038;-90
2021/03/06 14:52:08;;;;;;;0.80;0.80;;;7.90;62.10;;;;;;4978840;28;20043;-87
2021/03/06 14:55:17;;;;;;;1.40;0.93;;;7.90;61.40;;;;;;5012321;28;20073;-94
2021/03/06 14:57:51;;;;;;;5.05;1.20;;;7.80;62.70;;;;;;4981488;28;20042;-93
2021/03/06 15:00:31;;;;;;;1.20;1.10;;;7.70;62.00;;;;;;4979610;28;20130;-91
2021/03/06 15:10:46;;;;;;;4.03;1.02;;;7.70;62.00;;;;;;4899583;28;20040;-95
2021/03/06 15:17:40;;;;;;;;;;;;;;;;;;;;;
2021/03/06 15:20:28;;;;;;;3.03;1.55;;;7.40;63.40;;;;;;4883391;29;20269;-93
2021/03/06 15:23:30;;;;;;;;;;;;;;;;;;;;;
2021/03/06 16:03:53;;;;;;;;;;;;;;;;;;;;;
2021/03/06 16:07:24;;;;;;;;;;;;;;;;;;;;;
2021/03/06 16:10:54;;;;;;;1.45;1.35;;;7.00;66.60;;;;;;4923069;29;20040;-92
2021/03/06 16:31:22;;;;;;;;;;;;;;;;;;;;;
2021/03/06 17:37:01;;;;;;;;;;;;;;;;;;;;;
2021/03/06 18:24:28;;;;;;;3.60;3.03;;;6.50;72.40;;;;;;4936862;28;20039;-93
2021/03/06 18:26:56;;;;;;;3.05;2.70;;;6.50;72.50;;;;;;4961812;28;20400;-93
2021/03/06 18:32:43;;;;;;;3.58;2.50;;;6.60;72.30;;;;;;4975146;28;20543;-94
2021/03/06 18:35:25;;;;;;;5.88;2.60;;;6.60;72.10;;;;;;4942477;29;20475;-94
2021/03/06 18:38:32;;;;;;;;;;;;;;;;;;;;;
2021/03/06 18:41:01;;;;;;;3.35;2.50;;;6.70;71.70;;;;;;4959160;29;20031;-93
2021/03/06 18:43:34;;;;;;;4.18;3.17;;;6.70;72.00;;;;;;4975113;28;20077;-92
2021/03/06 18:46:28;;;;;;;4.43;3.33;;;6.70;72.10;;;;;;4967590;28;20039;-92
2021/03/06 18:49:32;;;;;;;3.13;2.35;;;6.70;72.10;;;;;;4973321;28;20042;-93
2021/03/06 18:55:34;;;;;;;6.63;3.17;;;6.70;72.00;;;;;;4997890;28;20099;-93
2021/03/06 18:58:05;;;;;;;3.70;2.63;;;6.70;72.00;;;;;;5000444;28;20121;-94
2021/03/06 19:10:13;;;;;;;4.60;3.42;;;6.70;72.40;;;;;;4958893;29;20034;-92
2021/03/06 19:13:31;;;;;;;6.20;3.40;;;6.70;72.50;;;;;;4995379;28;20165;-95
2021/03/06 20:28:38;;;;;;;7.60;4.28;;;6.50;74.20;;;;;;5022385;28;20025;-93
2021/03/06 20:38:21;;;;;;;5.43;4.30;;;6.50;74.40;;;;;;5037022;28;20774;-93
2021/03/06 20:44:57;;;;;;;6.93;3.92;;;6.50;74.40;;;;;;5037143;28;20140;-93
2021/03/06 20:55:22;;;;;;;5.35;3.83;;;6.50;74.70;;;;;;4939330;29;20119;-93
2021/03/06 21:12:40;;;;;;;5.75;3.65;;;6.40;74.80;;;;;;4940883;29;20448;-94
2021/03/06 21:39:09;;;;;;;10.63;5.50;;;6.40;76.30;;;;;;4988554;28;20064;-93
2021/03/06 21:41:45;;;;;;;7.05;4.68;;;6.30;76.80;;;;;;4942667;29;20050;-93
2021/03/06 21:46:57;;;;;;;5.95;4.55;;;6.30;77.30;;;;;;4994198;28;20045;-94
2021/03/06 21:49:35;;;;;;;;;;;;;;;;;;;;;
2021/03/06 21:52:23;;;;;;;7.65;4.25;;;6.30;76.30;;;;;;5019072;28;20044;-94
2021/03/06 21:55:26;;;;;;;;;;;;;;;;;;;;;
2021/03/06 21:58:15;;;;;;;;;;;;;;;;;;;;;
2021/03/06 22:00:44;;;;;;;4.93;3.28;;;6.30;76.30;;;;;;4983702;28;20031;-92
2021/03/06 22:03:36;;;;;;;;;;;;;;;;;;;;;
2021/03/06 22:06:29;;;;;;;;;;;;;;;;;;;;;
2021/03/06 22:09:43;;;;;;;8.65;5.47;;;6.30;76.20;;;;;;4976725;28;20031;-94
2021/03/06 22:18:55;;;;;;;4.93;3.60;;;6.20;75.80;;;;;;4976439;28;20038;-93
2021/03/06 22:21:41;;;;;;;7.57;3.95;;;6.20;75.20;;;;;;4963532;28;20043;-94
2021/03/06 22:27:30;;;;;;;5.50;3.40;;;6.20;74.20;;;;;;4996866;28;20047;-93
2021/03/06 22:36:53;;;;;;;;;;;;;;;;;;;;;
2021/03/06 22:42:28;;;;;;;4.38;2.72;;;6.20;73.40;;;;;;4991068;28;20058;-93
2021/03/06 22:45:51;;;;;;;3.28;2.42;;;6.20;73.10;;;;;;5007936;28;20117;-91
2021/03/06 22:52:51;;;;;;;;;;;;;;;;;;;;;
2021/03/06 22:55:23;;;;;;;2.85;1.83;;;6.10;71.60;;;;;;4994766;28;20030;-92
2021/03/06 23:01:11;;;;;;;2.80;2.05;;;6.10;71.60;;;;;;4999218;28;20030;-93
2021/03/06 23:07:12;;;;;;;2.65;1.88;;;6.20;71.70;;;;;;4988089;28;20288;-94
2021/03/06 23:10:18;;;;;;;2.95;1.98;;;6.20;71.30;;;;;;4970648;28;20031;-94
2021/03/06 23:13:23;;;;;;;7.38;2.38;;;6.20;71.70;;;;;;5038649;28;20037;-94
2021/03/06 23:16:07;;;;;;;2.50;1.80;;;6.20;71.40;;;;;;4970133;28;20038;-94
